sensor_id;sensor_type;location;lat;lon;timestamp;pressure;altitude;pressure_sealevel;temperature;humidity
25084;BME280;13075;55.682;37.564;2023-04-02T00:09:02;98871.56;;;11.08;100.00
25084;BME280;13075;55.682;37.564;2023-04-02T00:11:45;98861.63;;;11.34;100.00
25084;BME280;13075;55.682;37.564;2023-04-02T00:14:16;98880.03;;;11.30;100.00
25084;BME280;13075;55.682;37.564;2023-04-02T00:16:43;98870.44;;;11.41;100.00
25084;BME280;13075;55.682;37.564;2023-04-02T00:19:15;98881.16;;;11.16;100.00
25084;BME280;13075;55.682;37.564;2023-04-02T00:21:42;98884.66;;;11.16;100.00
25084;BME280;13075;55.682;37.564;2023-04-02T00:24:15;98876.56;;;11.66;100.00
25084;BME280;13075;55.682;37.564;2023-04-02T00:26:47;98883.66;;;11.54;100.00
25084;BME280;13075;55.682;37.564;2023-04-02T00:29:14;98891.88;;;11.41;100.00
25084;BME280;13075;55.682;37.564;2023-04-02T00:31:41;98879.75;;;11.13;100.00
25084;BME280;13075;55.682;37.564;2023-04-02T00:34:08;98886.16;;;11.55;100.00
25084;BME280;13075;55.682;37.564;2023-04-02T00:36:35;98881.81;;;11.54;100.00
25084;BME280;13075;55.682;37.564;2023-04-02T00:39:02;98870.13;;;11.67;100.00
25084;BME280;13075;55.682;37.564;2023-04-02T00:41:30;98870.66;;;11.39;100.00
25084;BME280;13075;55.682;37.564;2023-04-02T00:43:56;98881.66;;;11.49;100.00
25084;BME280;13075;55.682;37.564;2023-04-02T00:46:28;98880.69;;;11.44;100.00
25084;BME280;13075;55.682;37.564;2023-04-02T00:53:55;98895.84;;;11.32;100.00
25084;BME280;13075;55.682;37.564;2023-04-02T00:56:44;98900.06;;;11.46;100.00
25084;BME280;13075;55.682;37.564;2023-04-02T00:59:26;98892.66;;;11.41;100.00
25084;BME280;13075;55.682;37.564;2023-04-02T01:01:55;98900.56;;;11.11;100.00
25084;BME280;13075;55.682;37.564;2023-04-02T01:04:32;98892.44;;;11.24;100.00
25084;BME280;13075;55.682;37.564;2023-04-02T01:07:03;98898.28;;;11.58;100.00
25084;BME280;13075;55.682;37.564;2023-04-02T01:12:07;98893.06;;;11.45;100.00
25084;BME280;13075;55.682;37.564;2023-04-02T01:14:57;98890.69;;;11.55;100.00
25084;BME280;13075;55.682;37.564;2023-04-02T01:17:28;98882.44;;;11.74;100.00
25084;BME280;13075;55.682;37.564;2023-04-02T01:22:52;98895.97;;;11.18;100.00
25084;BME280;13075;55.682;37.564;2023-04-02T01:25:27;98888.72;;;11.86;100.00
25084;BME280;13075;55.682;37.564;2023-04-02T01:28:05;98891.81;;;11.65;100.00
25084;BME280;13075;55.682;37.564;2023-04-02T01:30:34;98887.41;;;11.53;100.00
25084;BME280;13075;55.682;37.564;2023-04-02T01:33:01;98896.31;;;11.90;100.00
25084;BME280;13075;55.682;37.564;2023-04-02T01:35:26;98893.53;;;11.78;100.00
25084;BME280;13075;55.682;37.564;2023-04-02T01:38:04;98892.91;;;11.58;100.00
25084;BME280;13075;55.682;37.564;2023-04-02T01:45:37;98882.72;;;12.03;100.00
25084;BME280;13075;55.682;37.564;2023-04-02T01:48:04;98882.59;;;11.79;100.00
25084;BME280;13075;55.682;37.564;2023-04-02T01:50:34;98877.75;;;11.88;100.00
25084;BME280;13075;55.682;37.564;2023-04-02T01:53:04;98884.38;;;11.85;100.00
25084;BME280;13075;55.682;37.564;2023-04-02T01:58:02;98876.16;;;11.62;100.00
25084;BME280;13075;55.682;37.564;2023-04-02T02:00:28;98886.63;;;11.70;100.00
25084;BME280;13075;55.682;37.564;2023-04-02T02:02:55;98884.44;;;11.18;100.00
25084;BME280;13075;55.682;37.564;2023-04-02T02:05:21;98891.56;;;11.49;100.00
25084;BME280;13075;55.682;37.564;2023-04-02T02:07:49;98898.69;;;11.37;100.00
25084;BME280;13075;55.682;37.564;2023-04-02T02:10:38;98889.63;;;11.38;100.00
25084;BME280;13075;55.682;37.564;2023-04-02T02:13:02;98894.69;;;11.46;100.00
25084;BME280;13075;55.682;37.564;2023-04-02T02:15:29;98881.28;;;11.70;100.00
25084;BME280;13075;55.682;37.564;2023-04-02T02:17:56;98892.75;;;11.35;100.00
25084;BME280;13075;55.682;37.564;2023-04-02T02:20:23;98895.06;;;11.67;100.00
25084;BME280;13075;55.682;37.564;2023-04-02T02:22:50;98898.78;;;11.48;100.00
25084;BME280;13075;55.682;37.564;2023-04-02T02:25:17;98892.50;;;11.36;100.00
25084;BME280;13075;55.682;37.564;2023-04-02T02:27:48;98898.16;;;11.28;100.00
25084;BME280;13075;55.682;37.564;2023-04-02T02:32:51;98896.03;;;11.55;100.00
25084;BME280;13075;55.682;37.564;2023-04-02T02:35:22;98893.59;;;11.53;100.00
25084;BME280;13075;55.682;37.564;2023-04-02T02:37:54;98892.09;;;11.57;100.00
25084;BME280;13075;55.682;37.564;2023-04-02T02:40:23;98904.56;;;11.70;100.00
25084;BME280;13075;55.682;37.564;2023-04-02T02:42:51;98906.91;;;11.60;100.00
25084;BME280;13075;55.682;37.564;2023-04-02T02:45:19;98894.75;;;11.39;100.00
25084;BME280;13075;55.682;37.564;2023-04-02T02:47:47;98909.53;;;11.66;100.00
25084;BME280;13075;55.682;37.564;2023-04-02T02:50:32;98908.06;;;11.27;100.00
25084;BME280;13075;55.682;37.564;2023-04-02T02:53:03;98908.28;;;11.44;100.00
25084;BME280;13075;55.682;37.564;2023-04-02T02:55:34;98907.13;;;11.58;100.00
25084;BME280;13075;55.682;37.564;2023-04-02T02:58:30;98895.97;;;11.98;100.00
25084;BME280;13075;55.682;37.564;2023-04-02T03:01:26;98893.31;;;11.98;100.00
25084;BME280;13075;55.682;37.564;2023-04-02T03:03:52;98906.47;;;11.20;100.00
25084;BME280;13075;55.682;37.564;2023-04-02T03:06:19;98912.50;;;11.34;100.00
25084;BME280;13075;55.682;37.564;2023-04-02T03:08:54;98919.56;;;11.53;100.00
25084;BME280;13075;55.682;37.564;2023-04-02T03:11:32;98918.56;;;11.90;100.00
25084;BME280;13075;55.682;37.564;2023-04-02T03:14:45;98920.09;;;11.79;100.00
25084;BME280;13075;55.682;37.564;2023-04-02T03:16:55;98914.53;;;11.81;100.00
25084;BME280;13075;55.682;37.564;2023-04-02T03:19:27;98931.88;;;11.78;100.00
25084;BME280;13075;55.682;37.564;2023-04-02T03:21:59;98928.81;;;11.75;100.00
25084;BME280;13075;55.682;37.564;2023-04-02T03:27:20;98918.88;;;11.57;100.00
25084;BME280;13075;55.682;37.564;2023-04-02T03:29:48;98927.56;;;11.77;100.00
25084;BME280;13075;55.682;37.564;2023-04-02T03:32:28;98928.38;;;11.35;100.00
25084;BME280;13075;55.682;37.564;2023-04-02T03:37:47;98932.63;;;11.85;100.00
25084;BME280;13075;55.682;37.564;2023-04-02T03:42:45;98930.94;;;11.23;100.00
25084;BME280;13075;55.682;37.564;2023-04-02T03:45:16;98932.53;;;11.31;100.00
25084;BME280;13075;55.682;37.564;2023-04-02T03:50:14;98930.53;;;11.87;100.00
25084;BME280;13075;55.682;37.564;2023-04-02T03:52:44;98939.00;;;11.66;100.00
25084;BME280;13075;55.682;37.564;2023-04-02T03:55:23;98933.38;;;11.93;100.00
25084;BME280;13075;55.682;37.564;2023-04-02T04:02:50;98933.00;;;11.89;100.00
25084;BME280;13075;55.682;37.564;2023-04-02T04:05:22;98921.84;;;11.92;100.00
25084;BME280;13075;55.682;37.564;2023-04-02T04:07:52;98916.75;;;12.20;100.00
25084;BME280;13075;55.682;37.564;2023-04-02T04:10:22;98921.59;;;12.12;100.00
25084;BME280;13075;55.682;37.564;2023-04-02T04:12:49;98908.19;;;12.12;100.00
25084;BME280;13075;55.682;37.564;2023-04-02T04:15:30;98920.94;;;11.98;100.00
25084;BME280;13075;55.682;37.564;2023-04-02T04:18:02;98925.16;;;12.24;100.00
25084;BME280;13075;55.682;37.564;2023-04-02T04:23:35;98944.38;;;12.21;100.00
25084;BME280;13075;55.682;37.564;2023-04-02T04:26:00;98948.50;;;12.05;100.00
25084;BME280;13075;55.682;37.564;2023-04-02T04:28:41;98946.31;;;12.14;100.00
25084;BME280;13075;55.682;37.564;2023-04-02T04:31:19;98946.78;;;12.11;100.00
25084;BME280;13075;55.682;37.564;2023-04-02T04:33:51;98949.28;;;12.42;100.00
25084;BME280;13075;55.682;37.564;2023-04-02T04:36:23;98955.66;;;12.59;100.00
25084;BME280;13075;55.682;37.564;2023-04-02T04:38:59;98957.72;;;11.91;100.00
25084;BME280;13075;55.682;37.564;2023-04-02T04:41:36;98953.19;;;11.73;100.00
25084;BME280;13075;55.682;37.564;2023-04-02T04:46:54;98961.44;;;12.08;100.00
25084;BME280;13075;55.682;37.564;2023-04-02T04:49:34;98965.34;;;12.12;100.00
25084;BME280;13075;55.682;37.564;2023-04-02T04:52:46;98956.50;;;12.41;100.00
25084;BME280;13075;55.682;37.564;2023-04-02T04:54:52;98966.78;;;12.44;100.00
25084;BME280;13075;55.682;37.564;2023-04-02T04:57:30;98967.44;;;12.10;100.00
25084;BME280;13075;55.682;37.564;2023-04-02T05:02:39;98956.44;;;11.75;100.00
25084;BME280;13075;55.682;37.564;2023-04-02T05:05:14;98963.00;;;12.16;100.00
25084;BME280;13075;55.682;37.564;2023-04-02T05:07:43;98962.72;;;12.06;100.00
25084;BME280;13075;55.682;37.564;2023-04-02T05:10:14;98964.28;;;12.13;100.00
25084;BME280;13075;55.682;37.564;2023-04-02T05:17:45;98973.44;;;11.63;100.00
25084;BME280;13075;55.682;37.564;2023-04-02T05:20:20;98968.72;;;11.40;100.00
25084;BME280;13075;55.682;37.564;2023-04-02T05:22:52;98979.34;;;11.47;100.00
25084;BME280;13075;55.682;37.564;2023-04-02T05:25:23;98968.66;;;11.22;100.00
25084;BME280;13075;55.682;37.564;2023-04-02T05:28:02;98982.09;;;11.40;100.00
25084;BME280;13075;55.682;37.564;2023-04-02T05:30:42;98982.63;;;11.49;100.00
25084;BME280;13075;55.682;37.564;2023-04-02T05:33:22;98987.84;;;11.68;100.00
25084;BME280;13075;55.682;37.564;2023-04-02T05:35:50;98990.69;;;11.67;100.00
25084;BME280;13075;55.682;37.564;2023-04-02T05:38:23;98981.47;;;12.06;100.00
25084;BME280;13075;55.682;37.564;2023-04-02T05:41:36;98989.31;;;12.25;100.00
25084;BME280;13075;55.682;37.564;2023-04-02T05:43:37;98975.75;;;12.02;100.00
25084;BME280;13075;55.682;37.564;2023-04-02T05:46:06;98990.13;;;12.08;100.00
25084;BME280;13075;55.682;37.564;2023-04-02T05:48:39;98986.94;;;12.17;100.00
25084;BME280;13075;55.682;37.564;2023-04-02T05:51:11;99002.34;;;12.04;100.00
25084;BME280;13075;55.682;37.564;2023-04-02T05:53:44;98995.66;;;11.45;100.00
25084;BME280;13075;55.682;37.564;2023-04-02T05:56:24;98996.72;;;11.69;100.00
25084;BME280;13075;55.682;37.564;2023-04-02T06:04:01;98994.53;;;12.38;100.00
25084;BME280;13075;55.682;37.564;2023-04-02T06:06:39;98991.38;;;12.23;100.00
25084;BME280;13075;55.682;37.564;2023-04-02T06:09:09;98998.38;;;12.06;100.00
25084;BME280;13075;55.682;37.564;2023-04-02T06:11:38;98992.94;;;11.76;100.00
25084;BME280;13075;55.682;37.564;2023-04-02T06:14:09;98994.22;;;12.28;100.00
25084;BME280;13075;55.682;37.564;2023-04-02T06:16:36;98985.44;;;12.99;100.00
25084;BME280;13075;55.682;37.564;2023-04-02T06:19:06;98986.13;;;12.94;100.00
25084;BME280;13075;55.682;37.564;2023-04-02T06:21:34;98989.75;;;12.40;100.00
25084;BME280;13075;55.682;37.564;2023-04-02T06:24:08;98987.06;;;13.30;100.00
25084;BME280;13075;55.682;37.564;2023-04-02T06:26:37;98995.84;;;13.37;100.00
25084;BME280;13075;55.682;37.564;2023-04-02T06:29:05;98989.56;;;13.54;100.00
25084;BME280;13075;55.682;37.564;2023-04-02T06:33:59;98993.56;;;12.63;100.00
25084;BME280;13075;55.682;37.564;2023-04-02T06:36:26;98991.44;;;12.53;100.00
25084;BME280;13075;55.682;37.564;2023-04-02T06:39:02;98990.56;;;13.30;100.00
25084;BME280;13075;55.682;37.564;2023-04-02T06:41:29;98992.13;;;13.72;100.00
25084;BME280;13075;55.682;37.564;2023-04-02T06:44:16;98986.88;;;13.66;100.00
25084;BME280;13075;55.682;37.564;2023-04-02T06:47:02;98982.47;;;14.46;100.00
25084;BME280;13075;55.682;37.564;2023-04-02T06:52:00;99000.41;;;13.94;100.00
25084;BME280;13075;55.682;37.564;2023-04-02T06:54:28;98979.94;;;14.16;100.00
25084;BME280;13075;55.682;37.564;2023-04-02T06:56:58;98998.97;;;15.06;100.00
25084;BME280;13075;55.682;37.564;2023-04-02T06:59:33;98994.31;;;14.45;100.00
25084;BME280;13075;55.682;37.564;2023-04-02T07:02:02;98996.94;;;14.68;100.00
25084;BME280;13075;55.682;37.564;2023-04-02T07:04:28;98981.56;;;14.97;100.00
25084;BME280;13075;55.682;37.564;2023-04-02T07:06:54;98997.03;;;14.73;100.00
25084;BME280;13075;55.682;37.564;2023-04-02T07:09:23;99004.75;;;14.98;100.00
25084;BME280;13075;55.682;37.564;2023-04-02T07:11:53;98998.09;;;13.98;100.00
25084;BME280;13075;55.682;37.564;2023-04-02T07:14:19;99010.03;;;13.14;100.00
25084;BME280;13075;55.682;37.564;2023-04-02T07:16:44;98994.94;;;13.66;100.00
25084;BME280;13075;55.682;37.564;2023-04-02T07:19:17;99005.78;;;13.36;100.00
25084;BME280;13075;55.682;37.564;2023-04-02T07:21:43;99009.47;;;12.94;100.00
25084;BME280;13075;55.682;37.564;2023-04-02T07:24:10;99014.75;;;12.71;100.00
25084;BME280;13075;55.682;37.564;2023-04-02T07:26:35;99017.81;;;12.56;100.00
25084;BME280;13075;55.682;37.564;2023-04-02T07:29:00;99006.25;;;12.74;100.00
25084;BME280;13075;55.682;37.564;2023-04-02T07:31:26;99027.16;;;12.83;100.00
25084;BME280;13075;55.682;37.564;2023-04-02T07:33:53;99024.91;;;12.50;100.00
25084;BME280;13075;55.682;37.564;2023-04-02T07:36:20;99030.44;;;12.85;100.00
25084;BME280;13075;55.682;37.564;2023-04-02T07:38:46;99019.75;;;12.97;100.00
25084;BME280;13075;55.682;37.564;2023-04-02T07:41:11;99019.91;;;13.43;100.00
25084;BME280;13075;55.682;37.564;2023-04-02T07:43:38;99027.75;;;13.68;100.00
25084;BME280;13075;55.682;37.564;2023-04-02T07:46:04;99027.41;;;14.22;100.00
25084;BME280;13075;55.682;37.564;2023-04-02T07:48:29;99031.63;;;13.60;100.00
25084;BME280;13075;55.682;37.564;2023-04-02T07:50:55;99021.44;;;13.51;100.00
25084;BME280;13075;55.682;37.564;2023-04-02T07:53:31;99029.88;;;13.89;100.00
25084;BME280;13075;55.682;37.564;2023-04-02T07:55:57;99028.88;;;13.37;100.00
25084;BME280;13075;55.682;37.564;2023-04-02T07:58:23;99027.50;;;13.05;100.00
25084;BME280;13075;55.682;37.564;2023-04-02T08:00:48;99026.97;;;12.96;100.00
25084;BME280;13075;55.682;37.564;2023-04-02T08:03:14;99029.25;;;13.52;100.00
25084;BME280;13075;55.682;37.564;2023-04-02T08:05:40;99026.72;;;13.57;100.00
25084;BME280;13075;55.682;37.564;2023-04-02T08:08:06;99033.75;;;13.82;100.00
25084;BME280;13075;55.682;37.564;2023-04-02T08:10:31;99028.94;;;13.72;100.00
25084;BME280;13075;55.682;37.564;2023-04-02T08:12:56;99041.28;;;13.50;100.00
25084;BME280;13075;55.682;37.564;2023-04-02T08:15:22;99037.81;;;13.61;100.00
25084;BME280;13075;55.682;37.564;2023-04-02T08:17:47;99042.50;;;13.24;100.00
25084;BME280;13075;55.682;37.564;2023-04-02T08:20:14;99034.50;;;13.36;100.00
25084;BME280;13075;55.682;37.564;2023-04-02T08:22:40;99042.13;;;12.91;100.00
25084;BME280;13075;55.682;37.564;2023-04-02T08:25:05;99050.16;;;13.39;100.00
25084;BME280;13075;55.682;37.564;2023-04-02T08:27:31;99035.34;;;12.59;100.00
25084;BME280;13075;55.682;37.564;2023-04-02T08:29:56;99041.69;;;12.94;100.00
25084;BME280;13075;55.682;37.564;2023-04-02T08:32:22;99046.34;;;13.17;100.00
25084;BME280;13075;55.682;37.564;2023-04-02T08:34:48;99041.38;;;13.32;100.00
25084;BME280;13075;55.682;37.564;2023-04-02T08:37:13;99051.00;;;12.62;100.00
25084;BME280;13075;55.682;37.564;2023-04-02T08:39:39;99045.88;;;13.08;100.00
25084;BME280;13075;55.682;37.564;2023-04-02T08:47:26;99048.44;;;12.85;100.00
25084;BME280;13075;55.682;37.564;2023-04-02T08:49:59;99043.84;;;12.85;100.00
25084;BME280;13075;55.682;37.564;2023-04-02T08:52:33;99044.88;;;13.32;100.00
25084;BME280;13075;55.682;37.564;2023-04-02T08:55:01;99048.47;;;12.48;100.00
25084;BME280;13075;55.682;37.564;2023-04-02T08:57:46;99050.53;;;12.46;100.00
25084;BME280;13075;55.682;37.564;2023-04-02T09:02:39;99043.16;;;12.24;100.00
25084;BME280;13075;55.682;37.564;2023-04-02T09:05:06;99038.84;;;12.41;100.00
25084;BME280;13075;55.682;37.564;2023-04-02T09:07:39;99037.50;;;12.98;100.00
25084;BME280;13075;55.682;37.564;2023-04-02T09:10:11;99029.91;;;13.25;100.00
25084;BME280;13075;55.682;37.564;2023-04-02T09:12:37;99042.59;;;13.59;100.00
25084;BME280;13075;55.682;37.564;2023-04-02T09:15:10;99051.47;;;12.88;100.00
25084;BME280;13075;55.682;37.564;2023-04-02T09:17:42;99057.91;;;12.15;100.00
25084;BME280;13075;55.682;37.564;2023-04-02T09:20:13;99048.75;;;12.59;100.00
25084;BME280;13075;55.682;37.564;2023-04-02T09:22:41;99045.50;;;12.86;100.00
25084;BME280;13075;55.682;37.564;2023-04-02T09:25:11;99041.47;;;12.95;100.00
25084;BME280;13075;55.682;37.564;2023-04-02T09:27:38;99037.84;;;13.84;100.00
25084;BME280;13075;55.682;37.564;2023-04-02T09:32:52;99046.00;;;13.54;100.00
25084;BME280;13075;55.682;37.564;2023-04-02T09:35:19;99046.75;;;13.32;100.00
25084;BME280;13075;55.682;37.564;2023-04-02T09:37:46;99050.00;;;13.04;100.00
25084;BME280;13075;55.682;37.564;2023-04-02T09:40:25;99049.16;;;14.09;100.00
25084;BME280;13075;55.682;37.564;2023-04-02T09:43:01;99067.41;;;13.01;100.00
25084;BME280;13075;55.682;37.564;2023-04-02T09:45:26;99058.53;;;12.83;100.00
25084;BME280;13075;55.682;37.564;2023-04-02T09:47:52;99056.19;;;12.75;100.00
25084;BME280;13075;55.682;37.564;2023-04-02T09:52:46;99055.47;;;13.68;100.00
25084;BME280;13075;55.682;37.564;2023-04-02T09:57:43;99045.03;;;13.49;100.00
25084;BME280;13075;55.682;37.564;2023-04-02T10:02:38;99045.69;;;13.86;100.00
25084;BME280;13075;55.682;37.564;2023-04-02T10:05:04;99057.34;;;13.80;100.00
25084;BME280;13075;55.682;37.564;2023-04-02T10:09:57;99049.41;;;13.85;100.00
25084;BME280;13075;55.682;37.564;2023-04-02T10:12:22;99054.47;;;13.40;100.00
25084;BME280;13075;55.682;37.564;2023-04-02T10:14:48;99050.19;;;13.50;100.00
25084;BME280;13075;55.682;37.564;2023-04-02T10:17:16;99058.06;;;14.33;100.00
25084;BME280;13075;55.682;37.564;2023-04-02T10:19:53;99049.66;;;14.18;100.00
25084;BME280;13075;55.682;37.564;2023-04-02T10:22:20;99054.09;;;14.47;100.00
25084;BME280;13075;55.682;37.564;2023-04-02T10:24:46;99057.97;;;14.79;100.00
25084;BME280;13075;55.682;37.564;2023-04-02T10:32:23;99038.66;;;15.11;100.00
25084;BME280;13075;55.682;37.564;2023-04-02T10:34:57;99040.44;;;16.16;100.00
25084;BME280;13075;55.682;37.564;2023-04-02T10:40:16;99042.22;;;16.28;100.00
25084;BME280;13075;55.682;37.564;2023-04-02T10:48:08;99040.28;;;15.40;100.00
25084;BME280;13075;55.682;37.564;2023-04-02T10:55:30;99031.28;;;16.17;98.76
25084;BME280;13075;55.682;37.564;2023-04-02T10:57:58;99030.50;;;15.84;100.00
25084;BME280;13075;55.682;37.564;2023-04-02T11:00:27;99035.66;;;15.85;100.00
25084;BME280;13075;55.682;37.564;2023-04-02T11:02:57;99038.00;;;15.20;100.00
25084;BME280;13075;55.682;37.564;2023-04-02T11:13:32;99035.72;;;15.57;100.00
25084;BME280;13075;55.682;37.564;2023-04-02T11:16:00;99029.44;;;15.51;100.00
25084;BME280;13075;55.682;37.564;2023-04-02T11:18:30;99021.06;;;15.20;100.00
25084;BME280;13075;55.682;37.564;2023-04-02T11:21:02;99022.84;;;16.14;100.00
25084;BME280;13075;55.682;37.564;2023-04-02T11:23:29;99025.28;;;15.94;100.00
25084;BME280;13075;55.682;37.564;2023-04-02T11:28:39;99033.22;;;16.60;99.12
25084;BME280;13075;55.682;37.564;2023-04-02T11:31:05;99042.84;;;15.80;100.00
25084;BME280;13075;55.682;37.564;2023-04-02T11:35:59;99035.41;;;15.25;100.00
25084;BME280;13075;55.682;37.564;2023-04-02T11:48:40;99035.94;;;16.22;100.00
25084;BME280;13075;55.682;37.564;2023-04-02T11:51:11;99040.13;;;15.46;100.00
25084;BME280;13075;55.682;37.564;2023-04-02T11:53:40;99038.53;;;15.34;100.00
25084;BME280;13075;55.682;37.564;2023-04-02T11:56:07;99036.41;;;14.91;100.00
25084;BME280;13075;55.682;37.564;2023-04-02T12:01:24;99035.66;;;15.52;100.00
25084;BME280;13075;55.682;37.564;2023-04-02T12:09:06;99039.72;;;16.04;100.00
25084;BME280;13075;55.682;37.564;2023-04-02T12:11:35;99034.91;;;15.56;100.00
25084;BME280;13075;55.682;37.564;2023-04-02T12:14:05;99035.19;;;15.27;100.00
25084;BME280;13075;55.682;37.564;2023-04-02T12:16:32;99041.63;;;15.71;100.00
25084;BME280;13075;55.682;37.564;2023-04-02T12:18:58;99036.63;;;15.18;100.00
25084;BME280;13075;55.682;37.564;2023-04-02T12:21:26;99039.91;;;15.65;100.00
25084;BME280;13075;55.682;37.564;2023-04-02T12:23:56;99046.53;;;15.74;100.00
25084;BME280;13075;55.682;37.564;2023-04-02T12:28:50;99046.78;;;15.55;100.00
25084;BME280;13075;55.682;37.564;2023-04-02T12:31:15;99040.88;;;15.14;100.00
25084;BME280;13075;55.682;37.564;2023-04-02T12:33:42;99044.72;;;15.96;98.32
25084;BME280;13075;55.682;37.564;2023-04-02T12:38:47;99036.25;;;16.26;95.19
25084;BME280;13075;55.682;37.564;2023-04-02T12:43:58;99033.16;;;16.55;91.38
25084;BME280;13075;55.682;37.564;2023-04-02T12:46:24;99037.25;;;16.79;91.41
25084;BME280;13075;55.682;37.564;2023-04-02T12:48:53;99041.59;;;16.04;93.00
25084;BME280;13075;55.682;37.564;2023-04-02T12:51:19;99049.56;;;16.92;89.97
25084;BME280;13075;55.682;37.564;2023-04-02T12:53:49;99047.81;;;16.04;92.07
25084;BME280;13075;55.682;37.564;2023-04-02T12:56:19;99047.06;;;16.47;91.01
25084;BME280;13075;55.682;37.564;2023-04-02T12:58:55;99049.78;;;16.47;89.50
25084;BME280;13075;55.682;37.564;2023-04-02T13:01:21;99046.78;;;15.55;93.85
25084;BME280;13075;55.682;37.564;2023-04-02T13:04:01;99046.13;;;16.37;89.93
25084;BME280;13075;55.682;37.564;2023-04-02T13:06:27;99052.75;;;15.74;93.38
25084;BME280;13075;55.682;37.564;2023-04-02T13:08:54;99048.81;;;15.82;96.14
25084;BME280;13075;55.682;37.564;2023-04-02T13:11:20;99053.56;;;15.58;92.10
25084;BME280;13075;55.682;37.564;2023-04-02T13:13:46;99046.06;;;15.77;94.82
25084;BME280;13075;55.682;37.564;2023-04-02T13:18:47;99050.44;;;15.99;92.76
25084;BME280;13075;55.682;37.564;2023-04-02T13:23:38;99054.06;;;16.27;91.10
25084;BME280;13075;55.682;37.564;2023-04-02T13:28:32;99051.97;;;15.95;94.27
25084;BME280;13075;55.682;37.564;2023-04-02T13:30:58;99048.97;;;15.75;93.99
25084;BME280;13075;55.682;37.564;2023-04-02T13:33:23;99050.84;;;15.75;95.27
25084;BME280;13075;55.682;37.564;2023-04-02T13:35:49;99057.00;;;15.87;91.13
25084;BME280;13075;55.682;37.564;2023-04-02T13:38:14;99055.69;;;15.73;93.79
25084;BME280;13075;55.682;37.564;2023-04-02T13:40:40;99058.88;;;15.86;94.04
25084;BME280;13075;55.682;37.564;2023-04-02T13:43:06;99053.84;;;16.11;92.69
25084;BME280;13075;55.682;37.564;2023-04-02T13:45:35;99044.97;;;15.94;91.96
25084;BME280;13075;55.682;37.564;2023-04-02T13:48:01;99052.16;;;15.89;94.88
25084;BME280;13075;55.682;37.564;2023-04-02T13:50:28;99051.50;;;15.98;93.38
25084;BME280;13075;55.682;37.564;2023-04-02T13:52:56;99052.16;;;15.55;94.30
25084;BME280;13075;55.682;37.564;2023-04-02T13:55:22;99050.19;;;15.68;94.24
25084;BME280;13075;55.682;37.564;2023-04-02T13:57:50;99050.59;;;15.93;93.06
25084;BME280;13075;55.682;37.564;2023-04-02T14:00:16;99052.81;;;15.96;92.57
25084;BME280;13075;55.682;37.564;2023-04-02T14:02:43;99058.13;;;16.07;90.61
25084;BME280;13075;55.682;37.564;2023-04-02T14:13:00;99051.38;;;15.43;95.30
25084;BME280;13075;55.682;37.564;2023-04-02T14:15:35;99050.69;;;15.48;96.91
25084;BME280;13075;55.682;37.564;2023-04-02T14:36:23;99055.03;;;15.99;90.79
25084;BME280;13075;55.682;37.564;2023-04-02T14:41:41;99052.78;;;15.46;95.60
25084;BME280;13075;55.682;37.564;2023-04-02T14:44:08;99044.56;;;15.52;92.55
25084;BME280;13075;55.682;37.564;2023-04-02T14:46:35;99041.31;;;15.39;93.66
25084;BME280;13075;55.682;37.564;2023-04-02T14:54:03;99035.72;;;15.57;93.51
25084;BME280;13075;55.682;37.564;2023-04-02T14:56:39;99039.66;;;15.66;93.10
25084;BME280;13075;55.682;37.564;2023-04-02T15:01:36;99041.63;;;15.71;92.23
25084;BME280;13075;55.682;37.564;2023-04-02T15:04:13;99040.31;;;15.73;93.79
25084;BME280;13075;55.682;37.564;2023-04-02T15:06:44;99048.66;;;15.72;93.42
25084;BME280;13075;55.682;37.564;2023-04-02T15:11:58;99042.78;;;15.30;96.61
25084;BME280;13075;55.682;37.564;2023-04-02T15:14:37;99048.19;;;15.02;100.00
25084;BME280;13075;55.682;37.564;2023-04-02T15:17:05;99053.13;;;15.21;100.00
25084;BME280;13075;55.682;37.564;2023-04-02T15:19:30;99051.78;;;15.35;99.03
25084;BME280;13075;55.682;37.564;2023-04-02T15:22:02;99050.25;;;15.11;100.00
25084;BME280;13075;55.682;37.564;2023-04-02T15:37:04;99047.28;;;15.41;100.00
25084;BME280;13075;55.682;37.564;2023-04-02T15:39:40;99046.31;;;15.30;100.00
25084;BME280;13075;55.682;37.564;2023-04-02T15:44:40;99059.09;;;14.95;100.00
25084;BME280;13075;55.682;37.564;2023-04-02T15:47:23;99056.00;;;15.15;100.00
25084;BME280;13075;55.682;37.564;2023-04-02T15:49:57;99056.66;;;14.93;100.00
25084;BME280;13075;55.682;37.564;2023-04-02T15:52:37;99055.25;;;15.19;100.00
25084;BME280;13075;55.682;37.564;2023-04-02T16:02:39;99062.78;;;15.34;100.00
25084;BME280;13075;55.682;37.564;2023-04-02T16:12:58;99071.34;;;15.14;100.00
25084;BME280;13075;55.682;37.564;2023-04-02T16:15:33;99081.91;;;14.76;100.00
25084;BME280;13075;55.682;37.564;2023-04-02T16:18:02;99082.78;;;14.81;100.00
25084;BME280;13075;55.682;37.564;2023-04-02T16:20:31;99080.81;;;14.88;100.00
25084;BME280;13075;55.682;37.564;2023-04-02T16:23:03;99094.84;;;14.90;100.00
25084;BME280;13075;55.682;37.564;2023-04-02T16:25:30;99098.28;;;14.74;100.00
25084;BME280;13075;55.682;37.564;2023-04-02T16:58:20;99118.56;;;15.05;100.00
25084;BME280;13075;55.682;37.564;2023-04-02T17:00:50;99121.72;;;15.14;100.00
25084;BME280;13075;55.682;37.564;2023-04-02T17:18:25;99119.94;;;15.19;100.00
25084;BME280;13075;55.682;37.564;2023-04-02T17:20:50;99125.53;;;15.18;100.00
25084;BME280;13075;55.682;37.564;2023-04-02T17:23:17;99117.38;;;15.13;100.00